sensor_id;sensor_type;location;lat;lon;timestamp;P1;durP1;ratioP1;P2;durP2;ratioP2
55423;SDS011;41294;42.666;23.350;2024-02-21T00:00:39;7.23;;;6.17;;
55423;SDS011;41294;42.666;23.350;2024-02-21T00:03:05;7.33;;;6.23;;
55423;SDS011;41294;42.666;23.350;2024-02-21T00:05:31;7.00;;;6.30;;
55423;SDS011;41294;42.666;23.350;2024-02-21T00:07:58;6.70;;;6.00;;
55423;SDS011;41294;42.666;23.350;2024-02-21T00:10:24;7.17;;;5.60;;
55423;SDS011;41294;42.666;23.350;2024-02-21T00:12:50;6.60;;;5.80;;
55423;SDS011;41294;42.666;23.350;2024-02-21T00:15:16;6.67;;;5.93;;
55423;SDS011;41294;42.666;23.350;2024-02-21T00:17:43;6.07;;;5.47;;
55423;SDS011;41294;42.666;23.350;2024-02-21T00:20:09;6.27;;;5.67;;
55423;SDS011;41294;42.666;23.350;2024-02-21T00:22:35;6.13;;;5.53;;
55423;SDS011;41294;42.666;23.350;2024-02-21T00:25:01;6.30;;;5.70;;
55423;SDS011;41294;42.666;23.350;2024-02-21T00:27:26;6.97;;;6.17;;
55423;SDS011;41294;42.666;23.350;2024-02-21T00:29:52;6.90;;;5.87;;
55423;SDS011;41294;42.666;23.350;2024-02-21T00:32:17;6.20;;;5.60;;
55423;SDS011;41294;42.666;23.350;2024-02-21T00:34:43;5.90;;;5.37;;
55423;SDS011;41294;42.666;23.350;2024-02-21T00:37:09;6.37;;;5.77;;
55423;SDS011;41294;42.666;23.350;2024-02-21T00:39:34;7.10;;;6.40;;
55423;SDS011;41294;42.666;23.350;2024-02-21T00:42:00;6.37;;;5.77;;
55423;SDS011;41294;42.666;23.350;2024-02-21T00:44:26;6.13;;;5.57;;
55423;SDS011;41294;42.666;23.350;2024-02-21T00:46:51;6.17;;;5.60;;
55423;SDS011;41294;42.666;23.350;2024-02-21T00:49:17;5.27;;;4.80;;
55423;SDS011;41294;42.666;23.350;2024-02-21T00:51:43;6.10;;;5.50;;
55423;SDS011;41294;42.666;23.350;2024-02-21T00:54:08;6.03;;;5.43;;
55423;SDS011;41294;42.666;23.350;2024-02-21T00:56:34;5.77;;;5.23;;
55423;SDS011;41294;42.666;23.350;2024-02-21T00:59:00;5.70;;;5.20;;
55423;SDS011;41294;42.666;23.350;2024-02-21T01:01:25;5.40;;;4.90;;
55423;SDS011;41294;42.666;23.350;2024-02-21T01:03:51;4.93;;;4.53;;
55423;SDS011;41294;42.666;23.350;2024-02-21T01:06:19;5.80;;;5.20;;
55423;SDS011;41294;42.666;23.350;2024-02-21T01:08:48;6.07;;;5.47;;
55423;SDS011;41294;42.666;23.350;2024-02-21T01:11:14;6.20;;;5.70;;
55423;SDS011;41294;42.666;23.350;2024-02-21T01:13:39;5.80;;;5.30;;
55423;SDS011;41294;42.666;23.350;2024-02-21T01:16:05;5.87;;;5.37;;
55423;SDS011;41294;42.666;23.350;2024-02-21T01:18:32;6.20;;;5.60;;
55423;SDS011;41294;42.666;23.350;2024-02-21T01:20:58;6.77;;;6.10;;
55423;SDS011;41294;42.666;23.350;2024-02-21T01:23:24;5.83;;;5.33;;
55423;SDS011;41294;42.666;23.350;2024-02-21T01:25:50;6.60;;;5.90;;
55423;SDS011;41294;42.666;23.350;2024-02-21T01:28:16;6.10;;;5.50;;
55423;SDS011;41294;42.666;23.350;2024-02-21T01:30:41;6.20;;;5.60;;
55423;SDS011;41294;42.666;23.350;2024-02-21T01:33:07;6.70;;;5.97;;
55423;SDS011;41294;42.666;23.350;2024-02-21T01:35:32;6.70;;;5.67;;
55423;SDS011;41294;42.666;23.350;2024-02-21T01:37:57;6.53;;;5.93;;
55423;SDS011;41294;42.666;23.350;2024-02-21T01:40:23;7.00;;;6.30;;
55423;SDS011;41294;42.666;23.350;2024-02-21T01:42:48;7.17;;;6.00;;
55423;SDS011;41294;42.666;23.350;2024-02-21T01:45:14;6.60;;;6.00;;
55423;SDS011;41294;42.666;23.350;2024-02-21T01:47:39;7.40;;;6.23;;
55423;SDS011;41294;42.666;23.350;2024-02-21T01:50:05;6.97;;;6.07;;
55423;SDS011;41294;42.666;23.350;2024-02-21T01:52:31;6.93;;;6.27;;
55423;SDS011;41294;42.666;23.350;2024-02-21T01:54:59;6.40;;;5.80;;
55423;SDS011;41294;42.666;23.350;2024-02-21T01:57:26;6.27;;;5.70;;
55423;SDS011;41294;42.666;23.350;2024-02-21T01:59:53;6.93;;;6.33;;
55423;SDS011;41294;42.666;23.350;2024-02-21T02:02:19;6.83;;;6.17;;
55423;SDS011;41294;42.666;23.350;2024-02-21T02:04:44;7.50;;;6.80;;
55423;SDS011;41294;42.666;23.350;2024-02-21T02:07:11;7.30;;;6.60;;
55423;SDS011;41294;42.666;23.350;2024-02-21T02:09:36;7.20;;;6.50;;
55423;SDS011;41294;42.666;23.350;2024-02-21T02:12:02;7.20;;;6.50;;
55423;SDS011;41294;42.666;23.350;2024-02-21T02:14:28;8.23;;;7.43;;
55423;SDS011;41294;42.666;23.350;2024-02-21T02:16:53;7.70;;;7.00;;
55423;SDS011;41294;42.666;23.350;2024-02-21T02:19:18;8.00;;;7.20;;
55423;SDS011;41294;42.666;23.350;2024-02-21T02:21:49;8.43;;;7.53;;
55423;SDS011;41294;42.666;23.350;2024-02-21T02:24:20;9.13;;;7.93;;
55423;SDS011;41294;42.666;23.350;2024-02-21T02:26:49;10.10;;;9.10;;
55423;SDS011;41294;42.666;23.350;2024-02-21T02:29:14;9.17;;;7.93;;
55423;SDS011;41294;42.666;23.350;2024-02-21T02:31:40;9.60;;;8.23;;
55423;SDS011;41294;42.666;23.350;2024-02-21T02:34:05;9.87;;;8.87;;
55423;SDS011;41294;42.666;23.350;2024-02-21T02:36:34;10.10;;;8.67;;
55423;SDS011;41294;42.666;23.350;2024-02-21T02:39:00;10.10;;;9.10;;
55423;SDS011;41294;42.666;23.350;2024-02-21T02:41:26;10.83;;;9.10;;
55423;SDS011;41294;42.666;23.350;2024-02-21T02:43:51;9.63;;;8.67;;
55423;SDS011;41294;42.666;23.350;2024-02-21T02:46:17;9.97;;;8.97;;
55423;SDS011;41294;42.666;23.350;2024-02-21T02:48:42;10.67;;;9.57;;
55423;SDS011;41294;42.666;23.350;2024-02-21T02:51:08;10.00;;;9.00;;
55423;SDS011;41294;42.666;23.350;2024-02-21T02:53:33;11.80;;;10.40;;
55423;SDS011;41294;42.666;23.350;2024-02-21T02:55:59;12.33;;;10.53;;
55423;SDS011;41294;42.666;23.350;2024-02-21T02:58:24;11.00;;;9.80;;
55423;SDS011;41294;42.666;23.350;2024-02-21T03:00:50;11.63;;;10.50;;
55423;SDS011;41294;42.666;23.350;2024-02-21T03:03:15;11.07;;;9.87;;
55423;SDS011;41294;42.666;23.350;2024-02-21T03:05:40;11.97;;;10.17;;
55423;SDS011;41294;42.666;23.350;2024-02-21T03:08:06;11.87;;;10.67;;
55423;SDS011;41294;42.666;23.350;2024-02-21T03:10:32;12.33;;;11.03;;
55423;SDS011;41294;42.666;23.350;2024-02-21T03:12:58;12.37;;;10.83;;
55423;SDS011;41294;42.666;23.350;2024-02-21T03:15:24;11.60;;;10.40;;
55423;SDS011;41294;42.666;23.350;2024-02-21T03:17:49;11.87;;;10.60;;
55423;SDS011;41294;42.666;23.350;2024-02-21T03:20:15;11.87;;;9.77;;
55423;SDS011;41294;42.666;23.350;2024-02-21T03:22:40;10.90;;;9.60;;
55423;SDS011;41294;42.666;23.350;2024-02-21T03:25:06;11.67;;;9.83;;
55423;SDS011;41294;42.666;23.350;2024-02-21T03:27:33;12.27;;;10.37;;
55423;SDS011;41294;42.666;23.350;2024-02-21T03:29:59;11.37;;;10.17;;
55423;SDS011;41294;42.666;23.350;2024-02-21T03:32:24;11.53;;;10.30;;
55423;SDS011;41294;42.666;23.350;2024-02-21T03:34:50;12.00;;;10.33;;
55423;SDS011;41294;42.666;23.350;2024-02-21T03:37:16;11.47;;;10.27;;
55423;SDS011;41294;42.666;23.350;2024-02-21T03:39:41;10.87;;;9.77;;
55423;SDS011;41294;42.666;23.350;2024-02-21T03:42:07;10.77;;;9.63;;
55423;SDS011;41294;42.666;23.350;2024-02-21T03:44:32;11.13;;;10.03;;
55423;SDS011;41294;42.666;23.350;2024-02-21T03:47:01;13.50;;;10.27;;
55423;SDS011;41294;42.666;23.350;2024-02-21T03:49:26;12.17;;;9.93;;
55423;SDS011;41294;42.666;23.350;2024-02-21T03:51:52;12.00;;;10.80;;
55423;SDS011;41294;42.666;23.350;2024-02-21T03:54:18;11.53;;;10.23;;
55423;SDS011;41294;42.666;23.350;2024-02-21T03:56:43;12.07;;;10.47;;
55423;SDS011;41294;42.666;23.350;2024-02-21T03:59:09;11.97;;;10.67;;
55423;SDS011;41294;42.666;23.350;2024-02-21T04:01:34;12.03;;;10.77;;
55423;SDS011;41294;42.666;23.350;2024-02-21T04:04:00;11.63;;;10.43;;
55423;SDS011;41294;42.666;23.350;2024-02-21T04:06:26;13.30;;;10.93;;
55423;SDS011;41294;42.666;23.350;2024-02-21T04:08:52;11.70;;;10.50;;
55423;SDS011;41294;42.666;23.350;2024-02-21T04:11:17;11.73;;;10.53;;
55423;SDS011;41294;42.666;23.350;2024-02-21T04:13:44;11.80;;;10.03;;
55423;SDS011;41294;42.666;23.350;2024-02-21T04:16:10;12.30;;;10.50;;
55423;SDS011;41294;42.666;23.350;2024-02-21T04:18:35;12.20;;;10.17;;
55423;SDS011;41294;42.666;23.350;2024-02-21T04:21:01;11.90;;;10.67;;
55423;SDS011;41294;42.666;23.350;2024-02-21T04:23:26;11.33;;;10.13;;
55423;SDS011;41294;42.666;23.350;2024-02-21T04:25:53;11.20;;;9.97;;
55423;SDS011;41294;42.666;23.350;2024-02-21T04:28:19;11.47;;;10.27;;
55423;SDS011;41294;42.666;23.350;2024-02-21T04:30:44;13.57;;;11.77;;
55423;SDS011;41294;42.666;23.350;2024-02-21T04:33:09;12.23;;;10.57;;
55423;SDS011;41294;42.666;23.350;2024-02-21T04:35:38;12.90;;;11.20;;
55423;SDS011;41294;42.666;23.350;2024-02-21T04:38:04;12.60;;;11.30;;
55423;SDS011;41294;42.666;23.350;2024-02-21T04:40:30;12.97;;;11.67;;
55423;SDS011;41294;42.666;23.350;2024-02-21T04:42:56;13.80;;;11.63;;
55423;SDS011;41294;42.666;23.350;2024-02-21T04:45:22;14.60;;;12.17;;
55423;SDS011;41294;42.666;23.350;2024-02-21T04:47:48;12.97;;;11.40;;
55423;SDS011;41294;42.666;23.350;2024-02-21T04:50:13;13.60;;;11.93;;
55423;SDS011;41294;42.666;23.350;2024-02-21T04:52:39;14.57;;;12.43;;
55423;SDS011;41294;42.666;23.350;2024-02-21T04:55:04;14.73;;;12.27;;
55423;SDS011;41294;42.666;23.350;2024-02-21T04:57:30;17.67;;;12.77;;
55423;SDS011;41294;42.666;23.350;2024-02-21T04:59:56;15.00;;;12.60;;
55423;SDS011;41294;42.666;23.350;2024-02-21T05:02:21;15.90;;;13.30;;
55423;SDS011;41294;42.666;23.350;2024-02-21T05:04:49;15.97;;;13.23;;
55423;SDS011;41294;42.666;23.350;2024-02-21T05:07:15;14.67;;;13.13;;
55423;SDS011;41294;42.666;23.350;2024-02-21T05:09:41;14.83;;;12.83;;
55423;SDS011;41294;42.666;23.350;2024-02-21T05:12:07;16.30;;;13.90;;
55423;SDS011;41294;42.666;23.350;2024-02-21T05:14:33;14.57;;;12.73;;
55423;SDS011;41294;42.666;23.350;2024-02-21T05:16:59;14.80;;;12.43;;
55423;SDS011;41294;42.666;23.350;2024-02-21T05:19:24;16.03;;;12.77;;
55423;SDS011;41294;42.666;23.350;2024-02-21T05:21:50;15.50;;;13.53;;
55423;SDS011;41294;42.666;23.350;2024-02-21T05:24:15;14.13;;;12.57;;
55423;SDS011;41294;42.666;23.350;2024-02-21T05:26:41;15.43;;;13.07;;
55423;SDS011;41294;42.666;23.350;2024-02-21T05:29:06;16.63;;;13.43;;
55423;SDS011;41294;42.666;23.350;2024-02-21T05:34:15;14.43;;;12.87;;
55423;SDS011;41294;42.666;23.350;2024-02-21T05:36:41;14.63;;;12.37;;
55423;SDS011;41294;42.666;23.350;2024-02-21T05:39:06;13.40;;;11.97;;
55423;SDS011;41294;42.666;23.350;2024-02-21T05:41:32;15.03;;;13.17;;
55423;SDS011;41294;42.666;23.350;2024-02-21T05:43:57;18.70;;;13.77;;
55423;SDS011;41294;42.666;23.350;2024-02-21T05:46:23;14.73;;;13.13;;
55423;SDS011;41294;42.666;23.350;2024-02-21T05:48:48;16.33;;;13.13;;
55423;SDS011;41294;42.666;23.350;2024-02-21T05:51:13;16.43;;;14.30;;
55423;SDS011;41294;42.666;23.350;2024-02-21T05:53:40;16.67;;;13.33;;
55423;SDS011;41294;42.666;23.350;2024-02-21T05:56:09;17.70;;;13.97;;
55423;SDS011;41294;42.666;23.350;2024-02-21T05:58:36;16.27;;;13.90;;
55423;SDS011;41294;42.666;23.350;2024-02-21T06:01:02;16.73;;;13.57;;
55423;SDS011;41294;42.666;23.350;2024-02-21T06:03:28;15.33;;;13.73;;
55423;SDS011;41294;42.666;23.350;2024-02-21T06:05:54;18.57;;;15.53;;
55423;SDS011;41294;42.666;23.350;2024-02-21T06:08:20;17.40;;;13.80;;
55423;SDS011;41294;42.666;23.350;2024-02-21T06:10:45;18.93;;;14.80;;
55423;SDS011;41294;42.666;23.350;2024-02-21T06:13:11;20.27;;;14.47;;
55423;SDS011;41294;42.666;23.350;2024-02-21T06:15:37;18.70;;;14.30;;
55423;SDS011;41294;42.666;23.350;2024-02-21T06:18:02;16.73;;;14.10;;
55423;SDS011;41294;42.666;23.350;2024-02-21T06:20:28;19.23;;;13.90;;
55423;SDS011;41294;42.666;23.350;2024-02-21T06:22:53;16.03;;;13.93;;
55423;SDS011;41294;42.666;23.350;2024-02-21T06:25:19;16.00;;;14.33;;
55423;SDS011;41294;42.666;23.350;2024-02-21T06:27:44;16.43;;;14.37;;
55423;SDS011;41294;42.666;23.350;2024-02-21T06:30:10;19.00;;;14.83;;
55423;SDS011;41294;42.666;23.350;2024-02-21T06:32:36;17.30;;;14.33;;
55423;SDS011;41294;42.666;23.350;2024-02-21T06:35:01;19.10;;;14.20;;
55423;SDS011;41294;42.666;23.350;2024-02-21T06:37:27;16.17;;;14.40;;
55423;SDS011;41294;42.666;23.350;2024-02-21T06:39:52;16.30;;;14.10;;
55423;SDS011;41294;42.666;23.350;2024-02-21T06:42:18;17.53;;;14.73;;
55423;SDS011;41294;42.666;23.350;2024-02-21T06:44:44;20.97;;;14.60;;
55423;SDS011;41294;42.666;23.350;2024-02-21T06:47:10;15.90;;;14.20;;
55423;SDS011;41294;42.666;23.350;2024-02-21T06:49:35;17.73;;;14.17;;
55423;SDS011;41294;42.666;23.350;2024-02-21T06:52:04;16.53;;;14.73;;
55423;SDS011;41294;42.666;23.350;2024-02-21T06:54:30;15.97;;;14.20;;
55423;SDS011;41294;42.666;23.350;2024-02-21T06:56:56;20.33;;;16.17;;
55423;SDS011;41294;42.666;23.350;2024-02-21T06:59:22;18.10;;;16.10;;
55423;SDS011;41294;42.666;23.350;2024-02-21T07:01:53;20.57;;;17.20;;
55423;SDS011;41294;42.666;23.350;2024-02-21T07:04:22;19.53;;;16.83;;
55423;SDS011;41294;42.666;23.350;2024-02-21T07:06:48;24.07;;;19.87;;
55423;SDS011;41294;42.666;23.350;2024-02-21T07:09:14;19.43;;;16.93;;
55423;SDS011;41294;42.666;23.350;2024-02-21T07:11:39;19.93;;;16.83;;
55423;SDS011;41294;42.666;23.350;2024-02-21T07:14:05;18.20;;;16.17;;
55423;SDS011;41294;42.666;23.350;2024-02-21T07:16:30;18.77;;;14.70;;
55423;SDS011;41294;42.666;23.350;2024-02-21T07:18:57;18.27;;;15.47;;
55423;SDS011;41294;42.666;23.350;2024-02-21T07:21:23;16.67;;;14.97;;
55423;SDS011;41294;42.666;23.350;2024-02-21T07:23:48;17.50;;;15.37;;
55423;SDS011;41294;42.666;23.350;2024-02-21T07:26:14;20.03;;;15.60;;
55423;SDS011;41294;42.666;23.350;2024-02-21T07:28:39;17.03;;;15.23;;
55423;SDS011;41294;42.666;23.350;2024-02-21T07:31:05;17.23;;;15.17;;
55423;SDS011;41294;42.666;23.350;2024-02-21T07:33:30;17.77;;;14.57;;
55423;SDS011;41294;42.666;23.350;2024-02-21T07:35:56;16.43;;;14.57;;
55423;SDS011;41294;42.666;23.350;2024-02-21T07:38:21;17.00;;;14.73;;
55423;SDS011;41294;42.666;23.350;2024-02-21T07:40:47;18.67;;;15.03;;
55423;SDS011;41294;42.666;23.350;2024-02-21T07:43:13;18.53;;;15.67;;
55423;SDS011;41294;42.666;23.350;2024-02-21T07:45:38;17.40;;;15.10;;
55423;SDS011;41294;42.666;23.350;2024-02-21T07:48:05;20.07;;;15.47;;
55423;SDS011;41294;42.666;23.350;2024-02-21T07:50:31;18.60;;;16.20;;
55423;SDS011;41294;42.666;23.350;2024-02-21T07:52:56;19.47;;;14.60;;
55423;SDS011;41294;42.666;23.350;2024-02-21T07:55:22;18.33;;;16.30;;
55423;SDS011;41294;42.666;23.350;2024-02-21T07:57:48;21.10;;;17.43;;
55423;SDS011;41294;42.666;23.350;2024-02-21T08:00:14;21.10;;;18.70;;
55423;SDS011;41294;42.666;23.350;2024-02-21T08:02:45;29.97;;;23.60;;
55423;SDS011;41294;42.666;23.350;2024-02-21T08:05:11;18.57;;;16.37;;
55423;SDS011;41294;42.666;23.350;2024-02-21T08:07:37;17.70;;;15.60;;
55423;SDS011;41294;42.666;23.350;2024-02-21T08:10:03;17.37;;;15.47;;
55423;SDS011;41294;42.666;23.350;2024-02-21T08:12:29;21.40;;;17.20;;
55423;SDS011;41294;42.666;23.350;2024-02-21T08:14:55;18.07;;;15.57;;
55423;SDS011;41294;42.666;23.350;2024-02-21T08:17:20;18.67;;;16.47;;
55423;SDS011;41294;42.666;23.350;2024-02-21T08:19:46;18.53;;;14.97;;
55423;SDS011;41294;42.666;23.350;2024-02-21T08:22:12;17.17;;;14.60;;
55423;SDS011;41294;42.666;23.350;2024-02-21T08:24:38;19.77;;;15.23;;
55423;SDS011;41294;42.666;23.350;2024-02-21T08:27:04;16.23;;;14.23;;
55423;SDS011;41294;42.666;23.350;2024-02-21T08:29:30;16.73;;;13.47;;
55423;SDS011;41294;42.666;23.350;2024-02-21T08:31:55;16.77;;;13.60;;
55423;SDS011;41294;42.666;23.350;2024-02-21T08:34:21;17.03;;;14.03;;
55423;SDS011;41294;42.666;23.350;2024-02-21T08:36:46;14.50;;;13.07;;
55423;SDS011;41294;42.666;23.350;2024-02-21T08:39:12;13.03;;;11.73;;
55423;SDS011;41294;42.666;23.350;2024-02-21T08:41:41;15.00;;;12.93;;
55423;SDS011;41294;42.666;23.350;2024-02-21T08:44:07;14.17;;;12.67;;
55423;SDS011;41294;42.666;23.350;2024-02-21T08:46:33;12.47;;;11.27;;
55423;SDS011;41294;42.666;23.350;2024-02-21T08:48:58;13.37;;;12.00;;
55423;SDS011;41294;42.666;23.350;2024-02-21T08:51:23;14.30;;;12.13;;
55423;SDS011;41294;42.666;23.350;2024-02-21T08:53:49;13.70;;;12.20;;
55423;SDS011;41294;42.666;23.350;2024-02-21T08:56:15;13.90;;;12.60;;
55423;SDS011;41294;42.666;23.350;2024-02-21T08:58:40;13.80;;;12.40;;
55423;SDS011;41294;42.666;23.350;2024-02-21T09:01:06;13.83;;;12.37;;
55423;SDS011;41294;42.666;23.350;2024-02-21T09:03:38;13.73;;;12.33;;
55423;SDS011;41294;42.666;23.350;2024-02-21T09:06:05;13.67;;;12.27;;
55423;SDS011;41294;42.666;23.350;2024-02-21T09:08:31;14.87;;;12.30;;
55423;SDS011;41294;42.666;23.350;2024-02-21T09:10:57;12.67;;;10.57;;
55423;SDS011;41294;42.666;23.350;2024-02-21T09:13:22;12.57;;;11.27;;
55423;SDS011;41294;42.666;23.350;2024-02-21T09:15:48;13.07;;;11.37;;
55423;SDS011;41294;42.666;23.350;2024-02-21T09:18:14;12.77;;;11.50;;
55423;SDS011;41294;42.666;23.350;2024-02-21T09:20:41;11.50;;;10.43;;
55423;SDS011;41294;42.666;23.350;2024-02-21T09:23:06;12.47;;;10.73;;
55423;SDS011;41294;42.666;23.350;2024-02-21T09:25:32;14.07;;;11.37;;
55423;SDS011;41294;42.666;23.350;2024-02-21T09:27:57;13.13;;;11.83;;
55423;SDS011;41294;42.666;23.350;2024-02-21T09:30:23;12.73;;;11.43;;
55423;SDS011;41294;42.666;23.350;2024-02-21T09:32:49;13.83;;;11.90;;
55423;SDS011;41294;42.666;23.350;2024-02-21T09:35:15;13.97;;;12.47;;
55423;SDS011;41294;42.666;23.350;2024-02-21T09:37:40;13.03;;;11.73;;
55423;SDS011;41294;42.666;23.350;2024-02-21T09:40:06;13.73;;;12.23;;
55423;SDS011;41294;42.666;23.350;2024-02-21T09:42:39;13.40;;;12.00;;
55423;SDS011;41294;42.666;23.350;2024-02-21T09:50:23;13.13;;;11.77;;
55423;SDS011;41294;42.666;23.350;2024-02-21T09:52:51;13.57;;;12.17;;
55423;SDS011;41294;42.666;23.350;2024-02-21T09:55:19;12.33;;;11.23;;
55423;SDS011;41294;42.666;23.350;2024-02-21T09:57:45;13.47;;;12.20;;
55423;SDS011;41294;42.666;23.350;2024-02-21T10:00:11;15.80;;;14.20;;
55423;SDS011;41294;42.666;23.350;2024-02-21T10:02:38;13.83;;;12.07;;
55423;SDS011;41294;42.666;23.350;2024-02-21T10:05:04;11.67;;;10.37;;
55423;SDS011;41294;42.666;23.350;2024-02-21T10:07:33;10.00;;;9.00;;
55423;SDS011;41294;42.666;23.350;2024-02-21T10:10:04;15.00;;;10.67;;
55423;SDS011;41294;42.666;23.350;2024-02-21T10:12:30;11.83;;;10.20;;
55423;SDS011;41294;42.666;23.350;2024-02-21T10:17:27;10.97;;;9.97;;
55423;SDS011;41294;42.666;23.350;2024-02-21T10:19:53;10.43;;;9.50;;
55423;SDS011;41294;42.666;23.350;2024-02-21T10:22:18;10.20;;;9.23;;
55423;SDS011;41294;42.666;23.350;2024-02-21T10:24:45;11.17;;;10.17;;
55423;SDS011;41294;42.666;23.350;2024-02-21T10:27:11;11.40;;;10.23;;
55423;SDS011;41294;42.666;23.350;2024-02-21T10:29:37;10.67;;;9.63;;
55423;SDS011;41294;42.666;23.350;2024-02-21T10:32:07;9.73;;;8.83;;
55423;SDS011;41294;42.666;23.350;2024-02-21T10:34:34;8.93;;;8.03;;
55423;SDS011;41294;42.666;23.350;2024-02-21T10:37:01;7.50;;;6.70;;
55423;SDS011;41294;42.666;23.350;2024-02-21T10:39:38;8.93;;;8.10;;
55423;SDS011;41294;42.666;23.350;2024-02-21T10:42:04;8.73;;;7.87;;
55423;SDS011;41294;42.666;23.350;2024-02-21T10:44:31;9.27;;;8.37;;
55423;SDS011;41294;42.666;23.350;2024-02-21T10:46:58;9.00;;;8.00;;
55423;SDS011;41294;42.666;23.350;2024-02-21T10:49:24;9.57;;;7.70;;
55423;SDS011;41294;42.666;23.350;2024-02-21T10:52:01;8.57;;;7.70;;
55423;SDS011;41294;42.666;23.350;2024-02-21T10:57:15;8.20;;;7.40;;
55423;SDS011;41294;42.666;23.350;2024-02-21T10:59:44;8.30;;;7.50;;
55423;SDS011;41294;42.666;23.350;2024-02-21T11:02:10;9.20;;;7.10;;
55423;SDS011;41294;42.666;23.350;2024-02-21T11:04:35;7.83;;;7.23;;
55423;SDS011;41294;42.666;23.350;2024-02-21T11:07:03;8.70;;;7.90;;
55423;SDS011;41294;42.666;23.350;2024-02-21T11:09:30;8.43;;;7.47;;
55423;SDS011;41294;42.666;23.350;2024-02-21T11:11:57;8.37;;;7.27;;
55423;SDS011;41294;42.666;23.350;2024-02-21T11:14:26;7.57;;;6.87;;
55423;SDS011;41294;42.666;23.350;2024-02-21T11:16:53;7.40;;;6.70;;
55423;SDS011;41294;42.666;23.350;2024-02-21T11:19:19;7.13;;;6.53;;
55423;SDS011;41294;42.666;23.350;2024-02-21T11:21:50;7.40;;;6.70;;
55423;SDS011;41294;42.666;23.350;2024-02-21T11:27:12;4.83;;;4.43;;
55423;SDS011;41294;42.666;23.350;2024-02-21T11:32:37;5.67;;;5.00;;
55423;SDS011;41294;42.666;23.350;2024-02-21T11:35:03;7.87;;;6.27;;
55423;SDS011;41294;42.666;23.350;2024-02-21T11:37:33;5.83;;;5.23;;
55423;SDS011;41294;42.666;23.350;2024-02-21T11:40:02;5.47;;;4.97;;
55423;SDS011;41294;42.666;23.350;2024-02-21T11:42:28;6.50;;;5.27;;
55423;SDS011;41294;42.666;23.350;2024-02-21T11:44:54;5.30;;;4.80;;
55423;SDS011;41294;42.666;23.350;2024-02-21T11:47:24;5.23;;;4.83;;
55423;SDS011;41294;42.666;23.350;2024-02-21T11:49:49;5.23;;;4.83;;
55423;SDS011;41294;42.666;23.350;2024-02-21T11:52:19;5.40;;;4.77;;
55423;SDS011;41294;42.666;23.350;2024-02-21T11:54:49;4.70;;;4.30;;
55423;SDS011;41294;42.666;23.350;2024-02-21T11:57:16;5.30;;;4.80;;
55423;SDS011;41294;42.666;23.350;2024-02-21T11:59:42;5.20;;;4.60;;
55423;SDS011;41294;42.666;23.350;2024-02-21T12:02:09;4.83;;;4.43;;
55423;SDS011;41294;42.666;23.350;2024-02-21T12:04:35;6.63;;;5.27;;
55423;SDS011;41294;42.666;23.350;2024-02-21T12:07:01;5.53;;;5.03;;
55423;SDS011;41294;42.666;23.350;2024-02-21T12:09:28;6.73;;;6.07;;
55423;SDS011;41294;42.666;23.350;2024-02-21T12:12:01;6.77;;;5.30;;
55423;SDS011;41294;42.666;23.350;2024-02-21T12:14:31;5.73;;;5.00;;
55423;SDS011;41294;42.666;23.350;2024-02-21T12:17:01;5.30;;;4.90;;
55423;SDS011;41294;42.666;23.350;2024-02-21T12:19:29;4.87;;;4.47;;
55423;SDS011;41294;42.666;23.350;2024-02-21T12:21:56;6.67;;;5.90;;
55423;SDS011;41294;42.666;23.350;2024-02-21T12:24:23;6.63;;;5.30;;
55423;SDS011;41294;42.666;23.350;2024-02-21T12:26:52;8.20;;;6.23;;
55423;SDS011;41294;42.666;23.350;2024-02-21T12:29:19;6.53;;;5.70;;
55423;SDS011;41294;42.666;23.350;2024-02-21T12:31:44;6.13;;;5.63;;
55423;SDS011;41294;42.666;23.350;2024-02-21T12:34:10;6.10;;;5.60;;
55423;SDS011;41294;42.666;23.350;2024-02-21T12:36:40;6.07;;;5.37;;
55423;SDS011;41294;42.666;23.350;2024-02-21T12:39:10;6.37;;;5.40;;
55423;SDS011;41294;42.666;23.350;2024-02-21T12:41:36;6.43;;;5.83;;
55423;SDS011;41294;42.666;23.350;2024-02-21T12:44:09;6.00;;;5.40;;
55423;SDS011;41294;42.666;23.350;2024-02-21T12:46:36;7.63;;;6.10;;
55423;SDS011;41294;42.666;23.350;2024-02-21T12:49:03;6.60;;;5.67;;
55423;SDS011;41294;42.666;23.350;2024-02-21T12:51:29;7.50;;;5.90;;
55423;SDS011;41294;42.666;23.350;2024-02-21T12:53:56;8.17;;;5.83;;
55423;SDS011;41294;42.666;23.350;2024-02-21T12:56:21;7.57;;;6.53;;
55423;SDS011;41294;42.666;23.350;2024-02-21T12:58:47;6.33;;;5.73;;
55423;SDS011;41294;42.666;23.350;2024-02-21T13:01:12;8.70;;;6.30;;
55423;SDS011;41294;42.666;23.350;2024-02-21T13:03:38;6.03;;;5.43;;
55423;SDS011;41294;42.666;23.350;2024-02-21T13:06:04;9.50;;;5.97;;
55423;SDS011;41294;42.666;23.350;2024-02-21T13:08:31;7.13;;;5.70;;
55423;SDS011;41294;42.666;23.350;2024-02-21T13:10:59;10.53;;;6.67;;
55423;SDS011;41294;42.666;23.350;2024-02-21T13:13:25;7.97;;;7.17;;
55423;SDS011;41294;42.666;23.350;2024-02-21T13:15:50;7.80;;;7.00;;
55423;SDS011;41294;42.666;23.350;2024-02-21T13:18:16;7.60;;;6.77;;
55423;SDS011;41294;42.666;23.350;2024-02-21T13:20:41;11.67;;;6.63;;
55423;SDS011;41294;42.666;23.350;2024-02-21T13:23:06;8.00;;;7.20;;
55423;SDS011;41294;42.666;23.350;2024-02-21T13:25:32;8.10;;;7.20;;
55423;SDS011;41294;42.666;23.350;2024-02-21T13:27:57;8.20;;;7.27;;
55423;SDS011;41294;42.666;23.350;2024-02-21T13:30:23;7.97;;;6.67;;
55423;SDS011;41294;42.666;23.350;2024-02-21T13:32:50;8.30;;;7.00;;
55423;SDS011;41294;42.666;23.350;2024-02-21T13:35:15;9.97;;;8.83;;
55423;SDS011;41294;42.666;23.350;2024-02-21T13:37:41;8.70;;;7.80;;
55423;SDS011;41294;42.666;23.350;2024-02-21T13:40:07;8.30;;;7.17;;
55423;SDS011;41294;42.666;23.350;2024-02-21T13:42:38;9.30;;;7.40;;
55423;SDS011;41294;42.666;23.350;2024-02-21T13:45:04;7.63;;;6.90;;
55423;SDS011;41294;42.666;23.350;2024-02-21T13:47:31;7.47;;;6.77;;
55423;SDS011;41294;42.666;23.350;2024-02-21T13:49:57;8.07;;;6.53;;
55423;SDS011;41294;42.666;23.350;2024-02-21T13:52:23;6.50;;;5.90;;
55423;SDS011;41294;42.666;23.350;2024-02-21T13:54:51;6.80;;;5.83;;
55423;SDS011;41294;42.666;23.350;2024-02-21T13:57:17;8.40;;;6.67;;
55423;SDS011;41294;42.666;23.350;2024-02-21T13:59:42;8.47;;;7.10;;
55423;SDS011;41294;42.666;23.350;2024-02-21T14:02:08;8.87;;;7.33;;
55423;SDS011;41294;42.666;23.350;2024-02-21T14:04:34;8.07;;;7.07;;
55423;SDS011;41294;42.666;23.350;2024-02-21T14:07:00;8.77;;;6.93;;
55423;SDS011;41294;42.666;23.350;2024-02-21T14:09:26;8.03;;;7.23;;
55423;SDS011;41294;42.666;23.350;2024-02-21T14:11:52;12.40;;;7.00;;
55423;SDS011;41294;42.666;23.350;2024-02-21T14:14:17;7.73;;;6.93;;
55423;SDS011;41294;42.666;23.350;2024-02-21T14:16:43;10.30;;;6.27;;
55423;SDS011;41294;42.666;23.350;2024-02-21T14:19:08;8.03;;;6.57;;
55423;SDS011;41294;42.666;23.350;2024-02-21T14:21:34;6.83;;;5.60;;
55423;SDS011;41294;42.666;23.350;2024-02-21T14:24:03;5.77;;;5.27;;
55423;SDS011;41294;42.666;23.350;2024-02-21T14:26:30;8.63;;;5.47;;
55423;SDS011;41294;42.666;23.350;2024-02-21T14:28:56;6.17;;;5.57;;
55423;SDS011;41294;42.666;23.350;2024-02-21T14:31:22;5.83;;;5.33;;
55423;SDS011;41294;42.666;23.350;2024-02-21T14:33:48;12.13;;;6.60;;